首页
METAR-TAF:

METAR-TAF

机场 :

Albert Lea, 明尼蘇達州, 美国

纬度: 43-41N, 经度: 093-22W, 海拔: 383米

当前天气观测

该预报发布于14分钟前的20:56 UTC
风速9节,风向西北
温度 -13°C
湿度 85%
气压 1013 hPa
能見度: 11.3公里
阴天层高于900英尺

METAR: KAEL 142056Z AUTO 31009KT 7SM OVC009 M13/M15 A2991 RMK AO2

时间: 15:10 (21:10 UTC)


TAF: 丢失

超过4000个机场的气象观测和天气预报(METAR&TAF报告)。

可查询的气象台以黄色和红色小点在地图上表示。

将鼠标移到小点上方,可查看气象台名称。

然后点击查看天气观测和预报。

如需切换地图:点击带黑十字的绿色按钮放大地图;点击带横线的绿色按钮缩小地图;或者点击绿色箭头查看邻近地区的地图。


METAR-TAF: